createdAt,value
2019-03-25T00:00:45.332Z,6.93
2019-03-25T00:03:13.896Z,7.03
2019-03-25T00:05:42.400Z,7.77
2019-03-25T00:08:10.855Z,9.20
2019-03-25T00:10:39.411Z,7.67
2019-03-25T00:13:07.900Z,8.20
2019-03-25T00:15:36.594Z,11.27
2019-03-25T00:18:05.166Z,7.93
2019-03-25T00:20:33.627Z,6.93
2019-03-25T00:23:02.087Z,6.83
2019-03-25T00:25:30.574Z,9.37
2019-03-25T00:27:59.139Z,8.53
2019-03-25T00:30:27.698Z,6.40
2019-03-25T00:32:56.154Z,6.83
2019-03-25T00:35:24.751Z,7.67
2019-03-25T00:37:53.240Z,7.53
2019-03-25T00:40:21.740Z,9.50
2019-03-25T00:42:50.250Z,9.00
2019-03-25T00:45:18.734Z,6.43
2019-03-25T00:47:47.194Z,7.33
2019-03-25T00:50:15.674Z,7.63
2019-03-25T00:52:44.139Z,7.67
2019-03-25T00:55:12.762Z,12.13
2019-03-25T00:57:41.316Z,10.07
2019-03-25T01:00:10.235Z,11.73
2019-03-25T01:02:38.878Z,9.87
2019-03-25T01:05:07.974Z,9.57
2019-03-25T01:07:36.435Z,7.90
2019-03-25T01:10:06.859Z,9.70
2019-03-25T01:12:35.490Z,8.93
2019-03-25T01:15:05.863Z,10.20
2019-03-25T01:17:34.363Z,9.27
2019-03-25T01:20:03.635Z,9.67
2019-03-25T01:22:32.129Z,9.27
2019-03-25T01:25:02.113Z,8.00
2019-03-25T01:27:30.812Z,7.73
2019-03-25T01:29:59.352Z,9.97
2019-03-25T01:32:28.047Z,11.87
2019-03-25T01:34:56.540Z,13.43
2019-03-25T01:37:25.002Z,7.57
2019-03-25T01:39:53.485Z,9.00
2019-03-25T01:42:21.951Z,7.53
2019-03-25T01:44:50.430Z,10.20
2019-03-25T01:47:18.995Z,11.63
2019-03-25T01:49:47.543Z,12.60
2019-03-25T01:52:16.271Z,9.57
2019-03-25T01:54:44.958Z,11.57
2019-03-25T01:57:13.637Z,10.27
2019-03-25T01:59:42.424Z,8.63
2019-03-25T02:02:12.553Z,7.67
2019-03-25T02:04:41.439Z,6.80
2019-03-25T02:07:12.190Z,6.83
2019-03-25T02:09:40.647Z,10.87
2019-03-25T02:12:09.441Z,7.37
2019-03-25T02:14:38.094Z,10.10
2019-03-25T02:17:06.810Z,9.77
2019-03-25T02:19:35.701Z,7.57
2019-03-25T02:22:04.796Z,11.97
2019-03-25T02:24:33.583Z,9.90
2019-03-25T02:27:02.221Z,8.53
2019-03-25T02:29:30.864Z,12.80
2019-03-25T02:31:59.634Z,7.30
2019-03-25T02:34:28.529Z,9.77
2019-03-25T02:36:57.210Z,10.90
2019-03-25T02:39:26.104Z,8.73
2019-03-25T02:41:54.785Z,9.87
2019-03-25T02:44:23.445Z,11.40
2019-03-25T02:46:52.157Z,11.80
2019-03-25T02:49:20.868Z,7.70
2019-03-25T02:51:50.509Z,14.47
2019-03-25T02:54:19.242Z,13.57
2019-03-25T02:56:48.024Z,11.97
2019-03-25T02:59:16.717Z,9.20
2019-03-25T03:01:45.707Z,8.23
2019-03-25T03:04:14.411Z,11.60
2019-03-25T03:06:43.090Z,7.70
2019-03-25T03:09:11.782Z,11.37
2019-03-25T03:11:40.503Z,11.40
2019-03-25T03:14:09.242Z,8.83
2019-03-25T03:16:37.902Z,11.00
2019-03-25T03:19:06.586Z,9.80
2019-03-25T03:21:35.197Z,11.90
2019-03-25T03:24:04.035Z,10.17
2019-03-25T03:26:32.684Z,9.40
2019-03-25T03:29:01.442Z,17.37
2019-03-25T03:31:30.149Z,11.57
2019-03-25T03:33:58.825Z,11.80
2019-03-25T03:36:27.617Z,10.17
2019-03-25T03:38:56.324Z,10.57
2019-03-25T03:41:24.973Z,10.27
2019-03-25T03:43:53.759Z,9.30
2019-03-25T03:46:22.557Z,16.50
2019-03-25T03:48:51.204Z,12.27
2019-03-25T03:51:20.131Z,11.67
2019-03-25T03:53:48.915Z,8.90
2019-03-25T03:56:17.806Z,9.30
2019-03-25T03:58:46.505Z,9.80
2019-03-25T04:01:15.061Z,9.70
2019-03-25T04:03:43.596Z,8.93
2019-03-25T04:06:12.187Z,12.43
2019-03-25T04:08:40.755Z,8.27
2019-03-25T04:11:09.258Z,13.43
2019-03-25T04:13:37.824Z,9.77
2019-03-25T04:16:06.496Z,9.57
2019-03-25T04:18:35.093Z,13.93
2019-03-25T04:21:03.684Z,9.03
2019-03-25T04:23:32.235Z,10.63
2019-03-25T04:26:00.729Z,11.87
2019-03-25T04:28:29.267Z,14.53
2019-03-25T04:30:57.838Z,9.67
2019-03-25T04:33:26.399Z,7.93
2019-03-25T04:35:54.936Z,12.93
2019-03-25T04:38:23.498Z,12.50
2019-03-25T04:40:51.952Z,12.13
2019-03-25T04:43:20.447Z,9.07
2019-03-25T04:45:49.770Z,12.53
2019-03-25T04:48:18.370Z,7.80
2019-03-25T04:50:46.926Z,10.47
2019-03-25T04:53:15.393Z,12.20
2019-03-25T04:55:43.875Z,8.30
2019-03-25T04:58:12.334Z,9.20
2019-03-25T05:00:40.939Z,9.93
2019-03-25T05:03:09.503Z,8.47
2019-03-25T05:05:37.963Z,10.37
2019-03-25T05:08:06.495Z,9.90
2019-03-25T05:10:35.050Z,13.13
2019-03-25T05:13:03.584Z,14.17
2019-03-25T05:15:32.128Z,10.17
2019-03-25T05:18:00.683Z,9.83
2019-03-25T05:20:29.172Z,9.87
2019-03-25T05:22:57.731Z,10.00
2019-03-25T05:25:26.186Z,12.23
2019-03-25T05:27:54.671Z,11.37
2019-03-25T05:30:23.138Z,11.97
2019-03-25T05:32:51.735Z,11.23
2019-03-25T05:35:20.266Z,17.30
2019-03-25T05:37:48.735Z,16.03
2019-03-25T05:40:17.250Z,10.90
2019-03-25T05:42:45.835Z,11.93
2019-03-25T05:45:14.647Z,14.10
2019-03-25T05:47:43.166Z,14.13
2019-03-25T05:50:11.786Z,16.23
2019-03-25T05:52:40.246Z,21.17
2019-03-25T05:55:08.927Z,14.17
2019-03-25T05:57:37.416Z,17.67
2019-03-25T06:00:06.511Z,12.67
2019-03-25T06:02:34.962Z,12.20
2019-03-25T06:05:03.819Z,10.50
2019-03-25T06:07:32.302Z,15.83
2019-03-25T06:10:00.802Z,11.57
2019-03-25T06:12:29.263Z,10.13
2019-03-25T06:14:57.746Z,11.07
2019-03-25T06:17:26.210Z,11.93
2019-03-25T06:19:54.675Z,12.97
2019-03-25T06:22:23.231Z,10.27
2019-03-25T06:24:51.730Z,14.73
2019-03-25T06:27:20.290Z,11.87
2019-03-25T06:29:48.758Z,14.67
2019-03-25T06:32:17.248Z,9.47
2019-03-25T06:34:45.827Z,8.77
2019-03-25T06:37:14.458Z,10.97
2019-03-25T06:39:43.047Z,7.90
2019-03-25T06:42:11.586Z,16.53
2019-03-25T06:44:40.211Z,9.80
2019-03-25T06:47:08.759Z,10.23
2019-03-25T06:49:37.247Z,12.13
2019-03-25T06:52:06.011Z,8.40
2019-03-25T06:54:34.499Z,10.10
2019-03-25T06:57:02.954Z,8.70
2019-03-25T06:59:31.485Z,8.93
2019-03-25T07:01:59.982Z,9.03
2019-03-25T07:04:28.455Z,8.93
2019-03-25T07:06:56.977Z,14.57
2019-03-25T07:09:25.602Z,11.33
2019-03-25T07:11:54.092Z,9.67
2019-03-25T07:14:22.628Z,11.43
2019-03-25T07:16:51.183Z,10.77
2019-03-25T07:19:19.807Z,11.93
2019-03-25T07:21:48.350Z,13.33
2019-03-25T07:24:16.807Z,12.93
2019-03-25T07:26:45.278Z,11.40
2019-03-25T07:29:13.758Z,10.60
2019-03-25T07:31:42.394Z,10.00
2019-03-25T07:34:10.956Z,11.50
2019-03-25T07:36:39.419Z,12.23
2019-03-25T07:39:07.971Z,13.20
2019-03-25T07:41:36.434Z,12.10
2019-03-25T07:44:05.042Z,13.23
2019-03-25T07:46:33.530Z,11.60
2019-03-25T07:49:02.015Z,11.00
2019-03-25T07:51:30.550Z,11.33
2019-03-25T07:53:59.086Z,8.90
2019-03-25T07:56:27.735Z,14.20
2019-03-25T07:58:56.287Z,7.73
2019-03-25T08:01:24.750Z,10.93
2019-03-25T08:03:53.295Z,11.27
2019-03-25T08:06:21.794Z,7.73
2019-03-25T08:08:50.287Z,12.83
2019-03-25T08:11:18.882Z,8.43
2019-03-25T08:13:47.442Z,8.30
2019-03-25T08:16:15.980Z,6.17
2019-03-25T08:18:44.503Z,6.60
2019-03-25T08:21:13.015Z,6.27
2019-03-25T08:23:41.500Z,7.73
2019-03-25T08:26:09.962Z,8.93
2019-03-25T08:28:38.518Z,5.70
2019-03-25T08:31:07.075Z,5.53
2019-03-25T08:33:35.604Z,7.07
2019-03-25T08:36:04.442Z,11.33
2019-03-25T08:38:33.040Z,9.13
2019-03-25T08:41:01.529Z,10.80
2019-03-25T08:43:29.996Z,8.27
2019-03-25T08:45:58.562Z,8.03
2019-03-25T08:48:27.103Z,9.60
2019-03-25T08:50:55.660Z,6.53
2019-03-25T08:53:24.195Z,7.57
2019-03-25T08:55:52.664Z,7.00
2019-03-25T08:58:21.223Z,7.67
2019-03-25T09:00:49.755Z,7.30
2019-03-25T09:03:18.243Z,7.13
2019-03-25T09:05:46.712Z,8.40
2019-03-25T09:08:15.253Z,8.23
2019-03-25T09:10:43.741Z,8.83
2019-03-25T09:13:12.294Z,7.83
2019-03-25T09:15:40.759Z,5.27
2019-03-25T09:18:09.461Z,9.60
2019-03-25T09:20:37.994Z,8.10
2019-03-25T09:23:06.631Z,9.07
2019-03-25T09:25:35.283Z,9.20
2019-03-25T09:28:03.915Z,6.23
2019-03-25T09:30:51.964Z,6.33
2019-03-25T09:33:20.762Z,5.43
2019-03-25T09:35:49.588Z,6.33
2019-03-25T09:38:18.314Z,7.57
2019-03-25T09:40:46.971Z,4.47
2019-03-25T09:43:15.555Z,5.93
2019-03-25T09:45:44.087Z,6.00
2019-03-25T09:48:12.575Z,7.93
2019-03-25T09:50:41.030Z,7.57
2019-03-25T09:53:09.547Z,7.17
2019-03-25T09:55:38.038Z,7.40
2019-03-25T09:58:06.606Z,6.50
2019-03-25T10:00:35.138Z,7.77
2019-03-25T10:03:03.818Z,6.93
2019-03-25T10:05:32.693Z,6.87
2019-03-25T10:08:01.269Z,8.10
2019-03-25T10:10:29.837Z,7.53
2019-03-25T10:12:58.502Z,7.00
2019-03-25T10:15:26.993Z,5.83
2019-03-25T10:17:55.555Z,7.70
2019-03-25T10:20:24.088Z,5.27
2019-03-25T10:22:52.631Z,5.93
2019-03-25T10:25:21.198Z,7.60
2019-03-25T10:27:49.788Z,7.53
2019-03-25T10:30:18.715Z,5.57
2019-03-25T10:32:47.207Z,7.10
2019-03-25T10:35:15.913Z,8.37
2019-03-25T10:37:45.358Z,6.80
2019-03-25T10:40:14.491Z,7.50
2019-03-25T10:42:43.058Z,6.50
2019-03-25T10:45:13.954Z,5.93
2019-03-25T10:47:42.617Z,6.67
2019-03-25T10:50:11.909Z,3.83
2019-03-25T10:52:40.401Z,6.83
2019-03-25T10:55:09.485Z,3.63
2019-03-25T10:57:38.026Z,6.57
2019-03-25T11:00:08.531Z,4.33
2019-03-25T11:02:37.114Z,6.17
2019-03-25T11:05:07.544Z,5.20
2019-03-25T11:07:36.109Z,6.27
2019-03-25T11:10:07.007Z,6.67
2019-03-25T11:12:35.474Z,6.43
2019-03-25T11:15:06.538Z,5.47
2019-03-25T11:17:35.002Z,4.77
2019-03-25T11:20:05.503Z,6.00
2019-03-25T11:22:34.219Z,5.73
2019-03-25T11:25:02.806Z,4.60
2019-03-25T11:27:31.297Z,4.77
2019-03-25T11:29:59.944Z,6.80
2019-03-25T11:32:28.567Z,4.40
2019-03-25T11:34:57.058Z,4.90
2019-03-25T11:37:25.595Z,5.70
2019-03-25T11:39:54.107Z,5.17
2019-03-25T11:42:22.646Z,4.50
2019-03-25T11:44:51.246Z,5.10
2019-03-25T11:47:19.722Z,4.67
2019-03-25T11:49:48.227Z,6.87
2019-03-25T11:52:16.751Z,6.17
2019-03-25T11:54:45.218Z,6.43
2019-03-25T11:57:13.703Z,7.50
2019-03-25T11:59:42.171Z,6.67
2019-03-25T12:02:17.569Z,7.47
2019-03-25T12:04:40.861Z,8.80
2019-03-25T12:07:09.473Z,4.50
2019-03-25T12:09:37.975Z,4.73
2019-03-25T12:12:06.572Z,4.93
2019-03-25T12:14:35.034Z,3.33
2019-03-25T12:17:03.606Z,2.80
2019-03-25T12:19:32.070Z,7.33
2019-03-25T12:22:00.550Z,4.80
2019-03-25T12:24:29.108Z,6.07
2019-03-25T12:26:57.574Z,5.13
2019-03-25T12:29:30.477Z,7.60
2019-03-25T12:31:56.419Z,3.67
2019-03-25T12:34:25.013Z,2.97
2019-03-25T12:36:53.714Z,3.77
2019-03-25T12:39:22.341Z,4.10
2019-03-25T12:41:50.991Z,4.53
2019-03-25T12:44:19.610Z,3.57
2019-03-25T12:46:48.170Z,3.90
2019-03-25T12:49:16.626Z,4.83
2019-03-25T12:51:45.187Z,4.13
2019-03-25T12:54:13.767Z,5.00
2019-03-25T12:56:42.227Z,4.27
2019-03-25T12:59:10.971Z,4.13
2019-03-25T13:01:39.526Z,3.63
2019-03-25T13:04:08.019Z,4.80
2019-03-25T13:06:36.554Z,5.57
2019-03-25T13:09:06.974Z,4.90
2019-03-25T13:11:35.498Z,4.30
2019-03-25T13:14:04.216Z,7.07
2019-03-25T13:16:32.782Z,4.07
2019-03-25T13:19:01.251Z,3.10
2019-03-25T13:21:29.714Z,2.57
2019-03-25T13:23:58.355Z,3.73
2019-03-25T13:26:26.815Z,4.67
2019-03-25T13:29:02.100Z,4.93
2019-03-25T13:31:25.502Z,4.63
2019-03-25T13:33:53.967Z,2.87
2019-03-25T13:36:22.464Z,3.20
2019-03-25T13:38:51.026Z,4.57
2019-03-25T13:41:19.494Z,3.23
2019-03-25T13:43:48.126Z,3.87
2019-03-25T13:46:16.995Z,4.37
2019-03-25T13:48:45.462Z,3.70
2019-03-25T13:51:13.948Z,3.00
2019-03-25T13:53:42.414Z,2.40
2019-03-25T13:56:10.899Z,3.23
2019-03-25T13:58:39.362Z,2.90
2019-03-25T14:01:07.920Z,3.80
2019-03-25T14:03:36.395Z,3.10
2019-03-25T14:06:05.479Z,2.03
2019-03-25T14:08:34.015Z,3.27
2019-03-25T14:11:02.506Z,3.13
2019-03-25T14:13:31.075Z,2.10
2019-03-25T14:15:59.702Z,3.40
2019-03-25T14:18:28.195Z,1.97
2019-03-25T14:20:56.769Z,3.00
2019-03-25T14:23:25.262Z,2.40
2019-03-25T14:25:53.895Z,2.97
2019-03-25T14:28:22.471Z,2.77
2019-03-25T14:30:51.100Z,3.10
2019-03-25T14:33:19.666Z,5.50
2019-03-25T14:35:48.455Z,3.07
2019-03-25T14:38:17.095Z,3.17
2019-03-25T14:40:45.812Z,3.30
2019-03-25T14:43:14.341Z,4.57
2019-03-25T14:45:42.994Z,3.97
2019-03-25T14:48:11.455Z,4.47
2019-03-25T14:50:39.982Z,2.87
2019-03-25T14:53:08.682Z,5.97
2019-03-25T14:55:37.154Z,3.83
2019-03-25T14:58:05.783Z,4.83
2019-03-25T15:00:34.316Z,6.80
2019-03-25T15:03:02.810Z,2.97
2019-03-25T15:05:31.344Z,5.57
2019-03-25T15:07:59.902Z,7.47
2019-03-25T15:10:28.510Z,3.30
2019-03-25T15:12:57.310Z,5.80
2019-03-25T15:15:25.912Z,3.83
2019-03-25T15:17:54.441Z,5.50
2019-03-25T15:20:23.027Z,6.83
2019-03-25T15:22:51.623Z,3.80
2019-03-25T15:25:20.114Z,2.63
2019-03-25T15:27:48.578Z,2.10
2019-03-25T15:30:17.402Z,2.73
2019-03-25T15:32:45.905Z,2.83
2019-03-25T15:35:14.807Z,1.90
2019-03-25T15:37:43.275Z,2.37
2019-03-25T15:40:13.234Z,2.80
2019-03-25T15:42:42.175Z,2.77
2019-03-25T15:45:10.899Z,2.33
2019-03-25T15:47:39.996Z,2.93
2019-03-25T15:50:10.377Z,2.90
2019-03-25T15:52:39.389Z,4.73
2019-03-25T15:55:08.691Z,2.83
2019-03-25T15:57:39.583Z,6.70
2019-03-25T16:00:16.494Z,3.47
2019-03-25T16:02:45.319Z,3.47
2019-03-25T16:05:14.624Z,4.87
2019-03-25T16:07:43.157Z,3.43
2019-03-25T16:10:13.584Z,3.73
2019-03-25T16:12:42.134Z,4.70
2019-03-25T16:15:12.340Z,5.57
2019-03-25T16:17:43.159Z,3.30
2019-03-25T16:20:12.194Z,5.60
2019-03-25T16:22:40.746Z,4.07
2019-03-25T16:25:11.011Z,5.70
2019-03-25T16:27:39.468Z,3.87
2019-03-25T16:30:08.678Z,4.67
2019-03-25T16:32:37.254Z,4.67
2019-03-25T16:35:06.699Z,3.47
2019-03-25T16:37:35.230Z,4.57
2019-03-25T16:40:04.883Z,3.47
2019-03-25T16:42:33.347Z,4.50
2019-03-25T16:45:01.882Z,3.80
2019-03-25T16:47:30.454Z,6.60
2019-03-25T16:49:59.015Z,4.53
2019-03-25T16:52:27.559Z,4.50
2019-03-25T16:54:56.143Z,2.90
2019-03-25T16:57:24.666Z,3.63
2019-03-25T16:59:53.221Z,2.83
2019-03-25T17:02:21.951Z,3.40
2019-03-25T17:04:50.430Z,4.20
2019-03-25T17:07:19.073Z,4.20
2019-03-25T17:09:47.598Z,4.47
2019-03-25T17:12:16.091Z,3.50
2019-03-25T17:14:44.667Z,5.07
2019-03-25T17:17:13.294Z,3.53
2019-03-25T17:19:41.758Z,3.53
2019-03-25T17:22:10.250Z,2.63
2019-03-25T17:24:38.707Z,3.13
2019-03-25T17:27:07.210Z,2.90
2019-03-25T17:29:35.750Z,5.30
2019-03-25T17:32:04.278Z,3.90
2019-03-25T17:34:32.845Z,2.17
2019-03-25T17:37:01.342Z,3.20
2019-03-25T17:39:29.803Z,3.03
2019-03-25T17:41:58.330Z,1.87
2019-03-25T17:44:26.928Z,5.10
2019-03-25T17:46:55.447Z,3.13
2019-03-25T17:49:24.002Z,3.43
2019-03-25T17:51:52.502Z,4.40
2019-03-25T17:54:20.973Z,2.73
2019-03-25T17:56:49.542Z,3.23
2019-03-25T17:59:18.123Z,2.73
2019-03-25T18:01:46.651Z,2.87
2019-03-25T18:04:15.138Z,1.93
2019-03-25T18:06:43.766Z,1.97
2019-03-25T18:09:12.483Z,4.40
2019-03-25T18:11:40.942Z,2.13
2019-03-25T18:14:09.443Z,2.67
2019-03-25T18:16:37.975Z,1.90
2019-03-25T18:19:06.958Z,1.50
2019-03-25T18:21:35.497Z,2.03
2019-03-25T18:24:04.191Z,4.30
2019-03-25T18:26:32.651Z,4.07
2019-03-25T18:29:01.119Z,2.47
2019-03-25T18:31:29.691Z,5.03
2019-03-25T18:33:58.423Z,2.67
2019-03-25T18:36:26.982Z,3.07
2019-03-25T18:38:55.525Z,6.33
2019-03-25T18:41:24.087Z,3.27
2019-03-25T18:43:52.842Z,2.47
2019-03-25T18:46:21.689Z,2.87
2019-03-25T18:48:50.372Z,5.33
2019-03-25T18:51:18.987Z,4.13
2019-03-25T18:53:47.448Z,4.20
2019-03-25T18:56:16.142Z,2.80
2019-03-25T18:58:45.121Z,4.77
2019-03-25T19:01:13.726Z,3.53
2019-03-25T19:03:42.415Z,3.53
2019-03-25T19:06:10.873Z,3.70
2019-03-25T19:08:39.491Z,4.93
2019-03-25T19:11:08.062Z,5.20
2019-03-25T19:13:36.562Z,4.67
2019-03-25T19:16:05.108Z,8.20
2019-03-25T19:18:33.622Z,4.50
2019-03-25T19:21:02.214Z,6.20
2019-03-25T19:23:30.814Z,5.93
2019-03-25T19:25:59.295Z,3.57
2019-03-25T19:28:27.803Z,7.07
2019-03-25T19:30:56.374Z,8.07
2019-03-25T19:33:24.981Z,6.70
2019-03-25T19:35:53.531Z,5.87
2019-03-25T19:38:22.120Z,8.13
2019-03-25T19:40:51.539Z,6.03
2019-03-25T19:43:20.070Z,3.70
2019-03-25T19:45:48.563Z,3.57
2019-03-25T19:48:17.300Z,2.90
2019-03-25T19:50:45.914Z,4.73
2019-03-25T19:53:19.343Z,5.03
2019-03-25T19:55:44.714Z,5.50
2019-03-25T19:58:13.203Z,5.83
2019-03-25T20:00:41.882Z,5.83
2019-03-25T20:03:10.499Z,5.73
2019-03-25T20:05:39.157Z,3.70
2019-03-25T20:08:07.748Z,3.37
2019-03-25T20:10:37.874Z,4.63
2019-03-25T20:13:06.847Z,4.57
2019-03-25T20:15:45.410Z,3.87
2019-03-25T20:18:05.743Z,4.20
2019-03-25T20:20:34.242Z,3.97
2019-03-25T20:23:02.772Z,5.13
2019-03-25T20:25:31.450Z,3.87
2019-03-25T20:27:59.983Z,5.80
2019-03-25T20:30:28.580Z,5.40
2019-03-25T20:32:57.240Z,6.10
2019-03-25T20:35:25.921Z,4.03
2019-03-25T20:37:54.502Z,9.47
2019-03-25T20:40:22.969Z,6.60
2019-03-25T20:42:51.554Z,6.07
2019-03-25T20:45:20.098Z,6.03
2019-03-25T20:47:48.676Z,6.30
2019-03-25T20:50:17.376Z,6.63
2019-03-25T20:52:45.879Z,6.57
2019-03-25T20:55:14.535Z,4.10
2019-03-25T20:57:43.043Z,4.93
2019-03-25T21:00:12.787Z,3.67
2019-03-25T21:02:45.309Z,5.43
2019-03-25T21:05:11.919Z,4.13
2019-03-25T21:07:40.450Z,6.13
2019-03-25T21:10:09.426Z,6.90
2019-03-25T21:12:38.790Z,5.53
2019-03-25T21:15:08.981Z,5.77
2019-03-25T21:17:37.547Z,4.17
2019-03-25T21:20:07.845Z,6.07
2019-03-25T21:22:36.557Z,6.37
2019-03-25T21:25:07.008Z,5.63
2019-03-25T21:27:35.547Z,4.27
2019-03-25T21:30:05.853Z,5.67
2019-03-25T21:32:34.494Z,5.70
2019-03-25T21:35:03.112Z,4.53
2019-03-25T21:37:31.746Z,6.77
2019-03-25T21:40:00.449Z,5.93
2019-03-25T21:42:29.479Z,4.90
2019-03-25T21:44:58.002Z,5.27
2019-03-25T21:47:26.691Z,6.80
2019-03-25T21:49:55.473Z,3.93
2019-03-25T21:52:23.983Z,6.57
2019-03-25T21:54:52.535Z,5.47
2019-03-25T21:57:21.156Z,4.67
2019-03-25T21:59:49.695Z,4.77
2019-03-25T22:02:18.170Z,4.67
2019-03-25T22:04:46.654Z,4.97
2019-03-25T22:07:15.179Z,3.70
2019-03-25T22:09:44.014Z,6.13
2019-03-25T22:12:12.542Z,4.00
2019-03-25T22:14:41.179Z,4.37
2019-03-25T22:17:09.732Z,4.57
2019-03-25T22:19:38.202Z,3.03
2019-03-25T22:22:06.683Z,4.10
2019-03-25T22:24:35.140Z,4.37
2019-03-25T22:27:03.702Z,5.90
2019-03-25T22:29:32.165Z,4.57
2019-03-25T22:32:00.690Z,4.70
2019-03-25T22:34:29.175Z,8.37
2019-03-25T22:36:57.661Z,5.53
2019-03-25T22:39:26.114Z,3.70
2019-03-25T22:41:54.599Z,5.57
2019-03-25T22:44:23.058Z,7.97
2019-03-25T22:46:51.588Z,8.70
2019-03-25T22:49:20.139Z,9.17
2019-03-25T22:51:48.603Z,5.57
2019-03-25T22:54:17.101Z,5.43
2019-03-25T22:56:45.564Z,8.77
2019-03-25T22:59:14.094Z,3.47
2019-03-25T23:01:42.726Z,3.77
2019-03-25T23:04:11.279Z,8.40
2019-03-25T23:06:39.738Z,4.07
2019-03-25T23:09:08.942Z,3.93
2019-03-25T23:11:37.438Z,6.73
2019-03-25T23:14:05.894Z,7.50
2019-03-25T23:16:34.378Z,3.73
2019-03-25T23:19:02.838Z,4.27
2019-03-25T23:21:31.322Z,4.97
2019-03-25T23:23:59.783Z,4.83
2019-03-25T23:26:28.350Z,4.83
2019-03-25T23:28:56.812Z,3.13
2019-03-25T23:31:25.342Z,3.23
2019-03-25T23:33:53.827Z,6.17
2019-03-25T23:36:22.384Z,6.00
2019-03-25T23:38:50.934Z,4.23
2019-03-25T23:41:19.468Z,5.87
2019-03-25T23:43:47.950Z,7.93
2019-03-25T23:46:16.581Z,5.23
2019-03-25T23:48:45.142Z,6.50
2019-03-25T23:51:13.602Z,8.00
2019-03-25T23:53:42.086Z,5.43
2019-03-25T23:56:10.550Z,6.30
2019-03-25T23:58:39.010Z,6.50
